Time;durP1;ratioP1;P1;durP2;ratioP2;P2;SDS_P1;SDS_P2;PMS_P1;PMS_P2;Temp;Humidity;BMP_temperature;BMP_pressure;BME280_temperature;BME280_humidity;BME280_pressure;Samples;Min_cycle;Max_cycle;Signal;HPM_P1;HPM_P2
2024/04/25 00:01:28;;;;;;;45.63;40.92;;;;;;;12.51;100.00;100026.94;5446568;26;19998;-78
2024/04/25 00:04:00;;;;;;;50.25;45.00;;;;;;;12.45;100.00;100021.75;5420830;26;20018;-78
2024/04/25 00:06:29;;;;;;;46.28;41.25;;;;;;;12.47;100.00;100017.00;5424437;26;20035;-78
2024/04/25 00:08:58;;;;;;;61.30;42.03;;;;;;;12.46;100.00;100010.06;5414518;26;20003;-78
2024/04/25 00:11:30;;;;;;;44.22;39.42;;;;;;;12.50;100.00;100003.22;5414661;26;20003;-75
2024/04/25 00:14:01;;;;;;;43.80;39.42;;;;;;;12.61;100.00;100008.50;5414856;26;20101;-79
2024/04/25 00:16:30;;;;;;;45.15;40.65;;;;;;;12.59;100.00;100010.59;5423872;26;20018;-75
2024/04/25 00:19:00;;;;;;;46.72;42.33;;;;;;;12.43;100.00;100007.84;5415113;26;19999;-75
2024/04/25 00:21:29;;;;;;;43.88;39.58;;;;;;;12.51;100.00;100008.31;5427311;26;20455;-79
2024/04/25 00:23:58;;;;;;;49.92;44.90;;;;;;;12.73;100.00;100005.00;5449705;26;20342;-78
2024/04/25 00:26:29;;;;;;;46.85;42.35;;;;;;;12.79;100.00;99998.72;5424041;26;20010;-78
2024/04/25 00:28:59;;;;;;;42.33;38.13;;;;;;;12.67;100.00;100001.41;5449862;26;20026;-78
2024/04/25 00:31:28;;;;;;;45.40;41.00;;;;;;;12.31;100.00;100008.69;5444993;26;20355;-78
2024/04/25 00:33:58;;;;;;;43.05;38.85;;;;;;;12.55;100.00;99998.78;5412859;26;20430;-78
2024/04/25 00:36:27;;;;;;;45.80;41.40;;;;;;;12.65;100.00;99998.19;5435630;26;20649;-78
2024/04/25 00:38:56;;;;;;;46.63;42.22;;;;;;;12.67;100.00;99996.09;5447265;26;20035;-78
2024/04/25 00:41:25;;;;;;;46.67;42.20;;;;;;;12.72;100.00;99990.88;5432040;26;19999;-78
2024/04/25 00:43:57;;;;;;;44.13;39.83;;;;;;;12.46;100.00;99986.88;5449365;26;20011;-78
2024/04/25 00:46:27;;;;;;;47.83;43.53;;;;;;;12.38;100.00;99980.09;5433811;26;20000;-78
2024/04/25 00:48:58;;;;;;;45.38;40.58;;;;;;;12.19;100.00;99981.28;5413371;26;20011;-74
2024/04/25 00:51:28;;;;;;;43.28;38.58;;;;;;;12.24;100.00;99980.59;5425710;26;20431;-75
2024/04/25 00:53:57;;;;;;;44.78;39.97;;;;;;;12.31;100.00;99981.25;5413365;26;19999;-75
2024/04/25 00:56:26;;;;;;;43.40;38.85;;;;;;;12.10;100.00;99988.84;5413007;26;20477;-75
2024/04/25 00:59:01;;;;;;;46.03;41.22;;;;;;;12.08;100.00;99992.75;5421969;26;20102;-75
2024/04/25 01:01:32;;;;;;;49.95;44.95;;;;;;;12.03;100.00;99988.13;5413085;26;20859;-75
2024/04/25 01:04:03;;;;;;;43.97;39.38;;;;;;;12.14;100.00;99978.53;5413648;26;20052;-75
2024/04/25 01:06:34;;;;;;;43.58;38.97;;;;;;;12.17;100.00;99966.59;5416708;26;20035;-75
2024/04/25 01:09:03;;;;;;;43.08;38.58;;;;;;;12.25;100.00;99977.66;5431148;26;20035;-75
2024/04/25 01:11:33;;;;;;;44.22;39.70;;;;;;;12.02;100.00;99977.72;5448488;26;19999;-75
2024/04/25 01:14:07;;;;;;;43.05;38.65;;;;;;;11.68;100.00;99994.25;5426843;26;20014;-75
2024/04/25 01:16:36;;;;;;;45.17;40.47;;;;;;;11.81;100.00;99995.06;5447191;26;20074;-75
2024/04/25 01:19:05;;;;;;;41.70;37.30;;;;;;;11.78;100.00;99995.53;5429369;26;20343;-75
2024/04/25 01:21:35;;;;;;;39.70;35.70;;;;;;;12.02;100.00;99988.38;5447962;26;19998;-75
2024/04/25 01:24:05;;;;;;;40.65;36.65;;;;;;;12.19;100.00;99989.25;5421048;26;20338;-75
2024/04/25 01:26:38;;;;;;;40.38;36.38;;;;;;;12.23;100.00;99993.09;5431083;26;20081;-79
2024/04/25 01:29:13;;;;;;;;;;;;;;;12.37;100.00;99994.47;5428217;26;20002;-78
2024/04/25 01:31:44;;;;;;;43.42;38.83;;;;;;;12.36;100.00;99978.69;5411907;26;19925;-78
2024/04/25 01:34:15;;;;;;;41.22;36.92;;;;;;;12.40;100.00;99979.03;5411875;26;20018;-75
2024/04/25 01:36:44;;;;;;;45.22;40.53;;;;;;;12.23;100.00;99981.63;5412478;26;20011;-75
2024/04/25 01:39:14;;;;;;;42.03;38.08;;;;;;;12.49;100.00;99986.41;5414991;26;19996;-78
2024/04/25 01:41:47;;;;;;;40.25;36.45;;;;;;;12.43;100.00;99971.38;5444747;26;20014;-78
2024/04/25 01:44:15;;;;;;;40.30;36.42;;;;;;;12.39;100.00;99967.56;5429497;26;20003;-75
2024/04/25 01:46:45;;;;;;;36.95;33.35;;;;;;;12.31;100.00;99966.06;5411499;26;19999;-78
2024/04/25 01:49:14;;;;;;;38.55;34.90;;;;;;;12.21;100.00;99965.88;5411745;26;20018;-78
2024/04/25 01:51:43;;;;;;;38.75;35.03;;;;;;;12.21;100.00;99960.56;5411429;26;20438;-75
2024/04/25 01:54:12;;;;;;;37.65;34.05;;;;;;;12.06;100.00;99970.88;5412464;26;20000;-79
2024/04/25 01:56:50;;;;;;;37.85;34.25;;;;;;;12.27;100.00;99972.94;5410973;26;20455;-78
2024/04/25 01:59:19;;;;;;;38.90;35.30;;;;;;;12.34;100.00;99970.13;5411740;26;20039;-78
2024/04/25 02:01:48;;;;;;;44.17;40.08;;;;;;;12.35;100.00;99972.56;5413073;26;20043;-79
2024/04/25 02:04:16;;;;;;;39.70;35.90;;;;;;;12.26;100.00;99971.31;5449208;26;20019;-78
2024/04/25 02:06:45;;;;;;;37.85;34.08;;;;;;;12.31;100.00;99976.72;5448282;26;20010;-79
2024/04/25 02:09:14;;;;;;;41.30;37.40;;;;;;;12.38;100.00;99972.09;5466438;26;20392;-79
2024/04/25 02:11:44;;;;;;;39.58;35.88;;;;;;;12.65;100.00;99966.22;5431973;26;20803;-78
2024/04/25 02:14:16;;;;;;;43.38;38.78;;;;;;;12.52;100.00;99964.63;5415855;26;19995;-78
2024/04/25 02:16:45;;;;;;;44.65;40.08;;;;;;;12.30;100.00;99961.00;5427806;26;20516;-78
2024/04/25 02:19:13;;;;;;;45.95;41.25;;;;;;;12.33;100.00;99963.19;5415861;26;20106;-79
2024/04/25 02:27:20;;;;;;;44.63;40.53;;;;;;;12.39;100.00;99962.25;5410189;26;20026;-74
2024/04/25 02:29:52;;;;;;;38.97;35.33;;;;;;;12.27;100.00;99967.59;5417076;26;20027;-75
2024/04/25 02:32:21;;;;;;;40.73;36.67;;;;;;;12.29;100.00;99965.53;5430043;26;20003;-75
2024/04/25 02:34:50;;;;;;;42.92;38.72;;;;;;;12.30;100.00;99974.31;5414946;26;20039;-75
2024/04/25 02:37:19;;;;;;;42.45;38.38;;;;;;;12.34;100.00;99981.63;5422264;26;20461;-75
2024/04/25 02:39:47;;;;;;;41.35;37.45;;;;;;;12.44;100.00;99983.66;5449133;26;20443;-75
2024/04/25 02:42:16;;;;;;;54.60;41.35;;;;;;;12.45;100.00;99977.28;5424620;26;20016;-75
2024/04/25 02:44:42;;;;;;;48.17;41.17;;;;;;;12.61;100.00;99981.06;5450571;26;20039;-75
2024/04/25 02:47:14;;;;;;;43.25;39.05;;;;;;;12.67;100.00;99968.66;5429967;26;20044;-75
2024/04/25 02:49:40;;;;;;;43.08;39.00;;;;;;;12.40;100.00;99971.84;5414119;26;20206;-75
2024/04/25 02:52:11;;;;;;;40.55;36.55;;;;;;;12.61;100.00;99975.72;5416381;26;20033;-75
2024/04/25 02:54:37;;;;;;;40.40;36.70;;;;;;;12.49;100.00;99975.75;5414773;26;20015;-78
2024/04/25 02:57:07;;;;;;;42.47;37.88;;;;;;;12.56;100.00;99971.13;5417646;26;20491;-78
2024/04/25 02:59:33;;;;;;;43.95;39.40;;;;;;;12.65;100.00;99984.88;5417720;26;20011;-78
2024/04/25 03:02:02;;;;;;;41.47;35.88;;;;;;;12.68;100.00;99976.41;5416800;26;20007;-78
2024/04/25 03:04:30;;;;;;;43.45;37.92;;;;;;;12.74;100.00;99988.78;5426005;26;20000;-79
2024/04/25 03:07:00;;;;;;;49.60;44.90;;;;;;;12.54;100.00;99978.53;5424185;26;19994;-78
2024/04/25 03:09:26;;;;;;;47.15;42.65;;;;;;;12.67;100.00;99980.09;5424260;26;20000;-75
2024/04/25 03:11:56;;;;;;;44.00;39.67;;;;;;;12.61;100.00;99987.19;5418673;26;20003;-75
2024/04/25 03:14:22;;;;;;;40.40;36.20;;;;;;;12.45;100.00;99982.63;5438980;26;20003;-75
2024/04/25 03:16:51;;;;;;;42.20;37.80;;;;;;;12.69;100.00;99990.53;5452533;26;20011;-75
2024/04/25 03:19:17;;;;;;;48.03;43.13;;;;;;;12.91;100.00;100004.81;5428769;26;20001;-75
2024/04/25 03:21:49;;;;;;;43.60;39.13;;;;;;;13.02;100.00;100008.47;5452145;26;20025;-75
2024/04/25 03:24:15;;;;;;;41.55;37.25;;;;;;;12.94;100.00;99998.19;5446902;26;20044;-75
2024/04/25 03:26:44;;;;;;;42.25;37.88;;;;;;;12.96;100.00;99996.09;5445271;26;20073;-75
2024/04/25 03:29:10;;;;;;;41.58;37.60;;;;;;;12.96;100.00;99993.44;5450529;26;20003;-75
2024/04/25 03:31:39;;;;;;;39.85;36.05;;;;;;;12.81;100.00;99985.97;5445380;26;20018;-75
2024/04/25 03:34:05;;;;;;;38.30;34.50;;;;;;;12.92;100.00;99998.44;5415386;26;20015;-75
2024/04/25 03:36:34;;;;;;;43.88;39.78;;;;;;;12.83;100.00;99983.88;5415771;26;20009;-75
2024/04/25 03:39:07;;;;;;;52.13;47.13;;;;;;;12.73;100.00;99995.13;5427427;26;20071;-76
2024/04/25 03:41:36;;;;;;;48.90;44.47;;;;;;;12.56;100.00;99992.44;5447169;26;20009;-75
2024/04/25 03:44:04;;;;;;;43.20;39.10;;;;;;;12.22;100.00;100007.44;5447567;26;20076;-75
2024/04/25 03:46:34;;;;;;;47.88;43.22;;;;;;;12.33;100.00;99997.81;5413856;26;20043;-74
2024/04/25 03:49:02;;;;;;;40.05;36.35;;;;;;;12.52;100.00;99982.47;5413980;26;20000;-78
2024/04/25 03:51:31;;;;;;;43.63;39.53;;;;;;;12.49;100.00;99975.75;5429949;26;20007;-78
2024/04/25 03:54:00;;;;;;;62.58;41.33;;;;;;;12.31;100.00;99987.38;5413733;26;20043;-78
2024/04/25 03:56:35;;;;;;;43.58;39.67;;;;;;;12.31;100.00;99990.03;5416623;26;19999;-75
2024/04/25 03:59:04;;;;;;;43.10;39.30;;;;;;;12.33;100.00;99998.63;5418086;26;20083;-79
2024/04/25 04:01:33;;;;;;;47.20;43.20;;;;;;;12.44;100.00;99996.19;5443425;26;20442;-79
2024/04/25 04:04:02;;;;;;;47.72;43.63;;;;;;;12.41;100.00;99988.66;5415918;26;20068;-78
2024/04/25 04:06:30;;;;;;;41.03;37.33;;;;;;;12.43;100.00;99990.03;5424263;26;20015;-79
2024/04/25 04:08:59;;;;;;;42.42;38.60;;;;;;;12.54;100.00;99996.38;5434910;26;20482;-75
2024/04/25 04:11:28;;;;;;;48.47;44.40;;;;;;;12.58;100.00;99998.31;5443141;26;20014;-75
2024/04/25 04:13:57;;;;;;;41.40;37.60;;;;;;;12.62;100.00;100006.66;5424360;26;20149;-75
2024/04/25 04:16:26;;;;;;;43.60;39.60;;;;;;;12.55;100.00;100009.44;5429272;26;20033;-75
2024/04/25 04:18:55;;;;;;;42.60;38.60;;;;;;;12.39;100.00;100002.19;5413451;26;20661;-75
2024/04/25 04:21:24;;;;;;;40.78;36.58;;;;;;;12.68;100.00;99996.91;5413727;26;20736;-75
2024/04/25 04:23:53;;;;;;;39.72;35.63;;;;;;;12.53;100.00;99992.09;5414059;26;20030;-76
2024/04/25 04:26:22;;;;;;;38.75;34.72;;;;;;;12.61;100.00;100002.38;5433711;26;20007;-76
2024/04/25 04:28:50;;;;;;;43.13;37.35;;;;;;;12.50;100.00;99996.03;5441530;26;19999;-78
2024/04/25 04:31:22;;;;;;;39.28;35.55;;;;;;;12.60;100.00;100003.41;5444901;26;20040;-75
2024/04/25 04:33:51;;;;;;;37.22;33.72;;;;;;;12.69;100.00;99996.66;5431523;26;20038;-75
2024/04/25 04:36:22;;;;;;;38.90;35.30;;;;;;;13.09;100.00;100003.81;5416605;26;20084;-80
2024/04/25 04:38:51;;;;;;;38.97;35.17;;;;;;;13.37;100.00;99999.50;5437335;26;20104;-80
2024/04/25 04:41:19;;;;;;;40.20;36.50;;;;;;;12.68;100.00;100008.38;5437735;26;20076;-80
2024/04/25 04:43:50;;;;;;;38.72;35.03;;;;;;;12.64;100.00;100009.88;5412535;26;20816;-80
2024/04/25 04:46:19;;;;;;;39.28;35.47;;;;;;;12.65;100.00;100008.03;5412523;26;19999;-80
2024/04/25 04:48:51;;;;;;;41.15;37.17;;;;;;;12.97;100.00;100017.19;5431608;26;20036;-80
2024/04/25 04:51:21;;;;;;;45.78;41.63;;;;;;;12.92;100.00;100008.28;5415728;26;20043;-79
2024/04/25 04:53:56;;;;;;;40.63;36.83;;;;;;;12.83;100.00;99999.88;5427352;26;20000;-81
2024/04/25 04:56:25;;;;;;;42.30;38.20;;;;;;;12.81;100.00;100010.75;5412599;26;20833;-78
2024/04/25 04:58:56;;;;;;;45.95;41.45;;;;;;;13.03;100.00;100010.91;5420666;26;20000;-78
2024/04/25 05:01:25;;;;;;;48.00;43.38;;;;;;;13.30;100.00;100021.00;5412217;26;20439;-78
2024/04/25 05:03:57;;;;;;;48.58;43.58;;;;;;;13.38;100.00;100020.63;5430709;26;20420;-77
2024/04/25 05:06:26;;;;;;;48.80;43.75;;;;;;;13.31;100.00;100017.28;5412562;26;20013;-78
2024/04/25 05:08:55;;;;;;;48.28;43.15;;;;;;;13.38;100.00;100027.81;5435595;26;19999;-78
2024/04/25 05:11:24;;;;;;;50.75;45.42;;;;;;;13.32;100.00;100023.44;5449070;26;20039;-78
2024/04/25 05:13:52;;;;;;;46.80;42.25;;;;;;;12.92;100.00;100033.09;5419728;26;20359;-78
2024/04/25 05:16:21;;;;;;;44.90;40.40;;;;;;;13.07;100.00;100038.72;5412916;26;20398;-78
2024/04/25 05:18:53;;;;;;;46.95;42.22;;;;;;;13.06;100.00;100039.75;5414155;26;19999;-80
2024/04/25 05:21:25;;;;;;;44.00;39.85;;;;;;;12.96;100.00;100034.22;5412354;26;19999;-78
2024/04/25 05:23:54;;;;;;;51.33;46.72;;;;;;;13.18;100.00;100029.03;5430352;26;19999;-78
2024/04/25 05:26:23;;;;;;;47.95;43.55;;;;;;;12.90;100.00;100027.19;5412377;26;20019;-78
2024/04/25 05:28:52;;;;;;;45.38;41.08;;;;;;;13.03;100.00;100036.75;5424956;26;20463;-78
2024/04/25 05:31:21;;;;;;;45.78;41.38;;;;;;;13.44;100.00;100042.84;5446399;26;19999;-78
2024/04/25 05:33:51;;;;;;;48.20;43.60;;;;;;;13.64;100.00;100045.03;5411986;26;20087;-78
2024/04/25 05:36:20;;;;;;;49.00;44.58;;;;;;;13.86;100.00;100045.13;5442372;26;19999;-78
2024/04/25 05:38:51;;;;;;;48.28;43.70;;;;;;;13.93;100.00;100035.09;5446935;26;20030;-78
2024/04/25 05:41:21;;;;;;;49.75;44.83;;;;;;;13.57;100.00;100039.06;5451300;26;19999;-78
2024/04/25 05:43:51;;;;;;;51.75;47.00;;;;;;;13.92;100.00;100044.97;5438852;26;20979;-77
2024/04/25 05:46:20;;;;;;;53.05;47.95;;;;;;;13.81;100.00;100042.38;5415135;26;20018;-78
2024/04/25 05:48:49;;;;;;;53.75;48.53;;;;;;;13.55;100.00;100041.94;5414912;26;20003;-77
2024/04/25 05:51:18;;;;;;;52.65;47.55;;;;;;;13.92;100.00;100050.28;5052740;26;9999951;-78
2024/04/25 05:53:47;;;;;;;50.88;45.95;;;;;;;13.62;100.00;100055.97;5439257;26;20087;-78
2024/04/25 05:56:19;;;;;;;49.97;45.38;;;;;;;14.01;100.00;100056.03;5426571;26;20041;-78
2024/04/25 05:58:49;;;;;;;47.22;42.53;;;;;;;14.21;100.00;100058.19;5467652;26;20040;-78
2024/04/25 06:01:20;;;;;;;48.72;43.85;;;;;;;13.87;100.00;100055.56;5416338;26;20008;-80
2024/04/25 06:03:49;;;;;;;49.35;44.40;;;;;;;13.95;100.00;100059.69;5464419;26;20010;-80
2024/04/25 06:06:17;;;;;;;52.03;47.03;;;;;;;13.35;100.00;100055.75;5418630;26;20039;-80
2024/04/25 06:08:46;;;;;;;51.90;47.00;;;;;;;13.37;100.00;100050.97;5414559;26;20080;-79
2024/04/25 06:11:18;;;;;;;49.40;44.38;;;;;;;13.38;100.00;100065.16;5412792;26;19999;-80
2024/04/25 06:13:47;;;;;;;50.63;45.67;;;;;;;13.44;100.00;100065.00;5425573;26;19995;-80
2024/04/25 06:16:16;;;;;;;49.75;44.75;;;;;;;13.42;100.00;100063.59;5429735;26;20028;-80
2024/04/25 06:18:47;;;;;;;53.80;48.60;;;;;;;13.81;100.00;100072.53;5447953;26;20097;-80
2024/04/25 06:21:16;;;;;;;61.53;50.90;;;;;;;13.89;100.00;100071.34;5420876;26;20346;-80
2024/04/25 06:23:45;;;;;;;53.15;48.05;;;;;;;13.89;100.00;100064.13;5467949;26;20078;-80
2024/04/25 06:26:14;;;;;;;56.10;50.70;;;;;;;14.13;100.00;100067.44;5437579;26;20084;-80
2024/04/25 06:28:45;;;;;;;56.40;51.00;;;;;;;14.11;100.00;100068.72;5421536;26;20071;-79
2024/04/25 06:31:15;;;;;;;55.83;50.03;;;;;;;14.32;100.00;100062.63;5458963;26;20771;-80
2024/04/25 06:33:44;;;;;;;53.85;48.38;;;;;;;13.84;100.00;100060.56;5430581;26;20000;-80
2024/04/25 06:36:13;;;;;;;54.10;48.60;;;;;;;14.06;100.00;100065.97;5482638;26;20330;-80
2024/04/25 06:38:42;;;;;;;53.50;48.33;;;;;;;13.84;100.00;100065.91;5467103;26;20445;-80
2024/04/25 06:41:12;;;;;;;51.15;46.17;;;;;;;14.08;100.00;100062.00;5481603;26;20013;-78
2024/04/25 06:43:42;;;;;;;50.55;45.75;;;;;;;13.95;100.00;100059.69;5484259;26;20002;-78
2024/04/25 06:46:15;;;;;;;51.90;46.70;;;;;;;13.83;100.00;100059.75;5412707;26;20076;-78
2024/04/25 06:48:44;;;;;;;52.03;46.70;;;;;;;14.19;100.00;100057.59;5413253;26;20018;-78
2024/04/25 06:51:18;;;;;;;55.30;49.67;;;;;;;14.51;100.00;100056.97;5427063;26;20017;-78
2024/04/25 06:53:47;;;;;;;56.30;50.70;;;;;;;14.28;100.00;100064.16;5461529;26;20014;-78
2024/04/25 06:56:16;;;;;;;53.70;48.25;;;;;;;14.65;100.00;100052.91;5459176;26;20013;-78
2024/04/25 06:58:46;;;;;;;53.60;48.47;;;;;;;14.66;100.00;100051.84;5453770;26;20000;-78
2024/04/25 07:01:17;;;;;;;53.92;48.75;;;;;;;14.40;100.00;100062.19;5419871;26;20013;-80
2024/04/25 07:03:51;;;;;;;52.35;47.08;;;;;;;14.59;100.00;100060.06;5413757;26;20943;-80
2024/04/25 07:06:20;;;;;;;50.42;45.53;;;;;;;14.87;100.00;100056.38;5471934;26;20705;-80
2024/04/25 07:08:51;;;;;;;51.13;45.90;;;;;;;14.77;100.00;100052.81;5413118;26;20117;-80
2024/04/25 07:11:20;;;;;;;51.60;46.50;;;;;;;14.74;100.00;100047.94;5412931;26;19996;-80
2024/04/25 07:13:48;;;;;;;53.17;47.53;;;;;;;14.62;100.00;100051.56;5413347;26;20072;-80
2024/04/25 07:16:21;;;;;;;53.75;48.20;;;;;;;14.70;100.00;100044.94;5414787;26;19999;-78
2024/04/25 07:18:50;;;;;;;;;;;;;;;14.64;100.00;100054.78;5414610;26;19999;-77
2024/04/25 07:21:18;;;;;;;50.60;45.40;;;;;;;14.07;100.00;100062.22;5414184;26;19961;-78
2024/04/25 07:23:47;;;;;;;55.25;49.50;;;;;;;14.91;100.00;100067.38;5414622;26;20102;-78
2024/04/25 07:26:16;;;;;;;54.60;49.00;;;;;;;14.51;100.00;100052.47;5439649;26;20087;-78
2024/04/25 07:28:45;;;;;;;52.78;47.38;;;;;;;14.46;100.00;100062.25;5417737;26;20962;-78
2024/04/25 07:31:17;;;;;;;53.42;47.60;;;;;;;14.50;100.00;100061.53;5414300;26;20003;-77
2024/04/25 07:33:49;;;;;;;;;;;;;;;14.88;100.00;100065.22;5434856;26;20003;-78
2024/04/25 07:36:22;;;;;;;51.28;46.00;;;;;;;15.88;100.00;100059.47;5433069;26;19925;-77
2024/04/25 07:38:51;;;;;;;52.53;47.03;;;;;;;14.62;100.00;100056.09;5432445;26;20435;-77
2024/04/25 07:41:21;;;;;;;50.28;45.08;;;;;;;15.28;100.00;100056.81;5450759;26;20982;-78
2024/04/25 07:43:50;;;;;;;50.10;44.90;;;;;;;15.13;100.00;100059.34;5435430;26;20358;-78
2024/04/25 07:46:19;;;;;;;54.50;48.70;;;;;;;14.82;100.00;100058.97;5414341;26;20455;-78
2024/04/25 07:48:51;;;;;;;50.38;45.17;;;;;;;15.19;100.00;100060.19;5423924;26;20014;-78
2024/04/25 07:51:20;;;;;;;51.60;46.08;;;;;;;15.38;100.00;100066.81;5440602;26;20000;-77
2024/04/25 07:53:49;;;;;;;52.63;47.25;;;;;;;15.10;100.00;100065.19;5414333;26;20084;-80
2024/04/25 07:56:17;;;;;;;54.92;49.10;;;;;;;14.79;100.00;100070.19;5414291;26;20831;-77
2024/04/25 07:58:46;;;;;;;54.72;48.60;;;;;;;14.00;100.00;100072.28;5413426;26;20454;-79
2024/04/25 08:01:18;;;;;;;57.33;49.20;;;;;;;14.71;100.00;100065.28;5412451;26;20000;-78
2024/04/25 08:03:50;;;;;;;56.60;50.40;;;;;;;14.19;100.00;100061.09;5433943;26;20013;-78
2024/04/25 08:06:19;;;;;;;58.70;50.80;;;;;;;14.82;100.00;100056.31;5414580;26;20000;-79
2024/04/25 08:08:48;;;;;;;53.60;47.50;;;;;;;14.24;100.00;100056.88;5414442;26;20031;-80
2024/04/25 08:11:17;;;;;;;58.38;51.20;;;;;;;15.40;100.00;100054.00;5414132;26;20014;-80
2024/04/25 08:13:46;;;;;;;56.60;46.78;;;;;;;15.49;100.00;100055.16;5414405;26;20920;-80
2024/04/25 08:16:15;;;;;;;54.90;44.97;;;;;;;14.68;100.00;100073.81;5414804;26;20614;-79
2024/04/25 08:18:44;;;;;;;54.38;45.83;;;;;;;14.60;100.00;100066.22;5414746;26;20106;-80
2024/04/25 08:21:15;;;;;;;55.15;47.53;;;;;;;15.26;100.00;100072.31;5415036;26;20018;-78
2024/04/25 08:23:45;;;;;;;56.53;50.33;;;;;;;15.12;100.00;100074.56;5414729;26;20018;-78
2024/04/25 08:26:14;;;;;;;53.30;45.70;;;;;;;15.10;100.00;100065.19;5425080;26;20003;-77
2024/04/25 08:28:43;;;;;;;54.97;45.88;;;;;;;14.84;100.00;100072.13;5426625;26;20026;-78
2024/04/25 08:31:12;;;;;;;59.20;47.58;;;;;;;15.03;100.00;100067.25;5434947;26;19999;-78
2024/04/25 08:33:42;;;;;;;56.90;47.75;;;;;;;14.96;100.00;100070.13;5421113;26;20450;-80
2024/04/25 08:36:11;;;;;;;56.10;44.72;;;;;;;14.14;100.00;100069.03;5421433;26;20015;-80
2024/04/25 08:38:43;;;;;;;52.22;43.42;;;;;;;14.24;100.00;100070.25;5438934;26;20023;-79
2024/04/25 08:41:13;;;;;;;;;;;;;;;14.24;100.00;100071.03;5440164;26;20000;-80
2024/04/25 08:43:44;;;;;;;54.83;48.17;;;;;;;14.62;100.00;100070.25;5414469;26;19925;-78
2024/04/25 08:46:16;;;;;;;45.67;42.10;;;;;;;13.91;100.00;100064.69;5414860;26;20043;-80
2024/04/25 08:48:46;;;;;;;44.88;41.28;;;;;;;13.98;100.00;100070.69;5414127;26;20117;-77
2024/04/25 08:51:19;;;;;;;45.95;42.25;;;;;;;13.88;100.00;100070.50;5419452;26;20038;-77
2024/04/25 08:53:52;;;;;;;52.33;46.92;;;;;;;14.63;100.00;100073.72;5415091;26;19999;-77
2024/04/25 08:56:22;;;;;;;48.30;43.10;;;;;;;13.86;100.00;100061.16;5417238;26;20369;-77
2024/04/25 08:58:51;;;;;;;56.40;45.50;;;;;;;14.26;100.00;100066.28;5449976;26;20035;-77
2024/04/25 09:01:21;;;;;;;58.13;48.78;;;;;;;14.63;100.00;100061.19;5446396;26;20007;-80
2024/04/25 09:03:54;;;;;;;57.35;49.17;;;;;;;15.02;100.00;100054.94;5413991;26;20014;-78
2024/04/25 09:06:24;;;;;;;56.55;45.35;;;;;;;14.69;100.00;100053.22;5414329;26;20058;-78
2024/04/25 09:08:55;;;;;;;54.97;44.33;;;;;;;14.58;100.00;100058.47;5413909;26;20018;-77
2024/04/25 09:11:25;;;;;;;60.20;48.90;;;;;;;15.18;100.00;100059.38;5424605;26;20002;-77
2024/04/25 09:13:56;;;;;;;43.70;40.50;;;;;;;15.10;100.00;100057.97;5449582;26;20018;-78
2024/04/25 09:16:27;;;;;;;46.83;43.03;;;;;;;15.51;100.00;100057.56;5434917;26;19999;-77
2024/04/25 09:18:56;;;;;;;53.47;47.00;;;;;;;16.06;100.00;100056.41;5452156;26;20462;-77
2024/04/25 09:21:25;;;;;;;58.90;49.60;;;;;;;15.05;100.00;100057.13;5416987;26;20019;-77
2024/04/25 09:23:58;;;;;;;59.38;53.38;;;;;;;15.61;100.00;100073.69;5417156;26;20000;-77
2024/04/25 09:26:30;;;;;;;55.83;50.13;;;;;;;15.52;100.00;100068.03;5415182;26;20439;-78
2024/04/25 09:28:59;;;;;;;51.22;45.95;;;;;;;14.87;100.00;100069.75;5430128;26;20002;-78
2024/04/25 09:31:29;;;;;;;52.38;46.33;;;;;;;15.24;100.00;100065.59;5446279;26;19998;-77
2024/04/25 09:33:58;;;;;;;50.10;44.80;;;;;;;15.49;100.00;100067.69;5433224;26;19999;-77
2024/04/25 09:36:28;;;;;;;50.00;44.85;;;;;;;14.97;100.00;100063.69;5451053;26;20003;-78
2024/04/25 09:38:59;;;;;;;52.10;46.50;;;;;;;14.93;100.00;100069.81;5437075;26;20049;-78
2024/04/25 09:41:30;;;;;;;49.88;44.55;;;;;;;14.64;100.00;100072.66;5415993;26;20912;-80
2024/04/25 09:43:59;;;;;;;53.38;47.67;;;;;;;14.58;100.00;100066.47;5427600;26;20494;-80
2024/04/25 09:46:48;;;;;;;54.58;49.00;;;;;;;14.97;100.00;100065.56;5451892;26;20002;-80
2024/04/25 09:49:19;;;;;;;49.38;44.25;;;;;;;14.79;100.00;100062.16;5438669;26;19999;-80
2024/04/25 09:51:54;;;;;;;52.13;46.73;;;;;;;14.71;100.00;100056.47;5415050;26;20003;-80
2024/04/25 09:54:29;;;;;;;51.63;46.13;;;;;;;14.60;100.00;100056.31;5428427;26;20010;-80
2024/04/25 09:57:04;;;;;;;48.00;42.90;;;;;;;14.36;100.00;100063.72;5451454;26;20100;-80
2024/04/25 09:59:43;;;;;;;52.95;47.35;;;;;;;14.28;100.00;100071.34;5440041;26;20347;-79
2024/04/25 10:02:19;;;;;;;54.33;48.75;;;;;;;14.58;100.00;100071.00;5430022;26;19999;-79
2024/04/25 10:04:48;;;;;;;55.38;47.10;;;;;;;14.91;100.00;100058.56;5438218;26;20000;-80
2024/04/25 10:07:18;;;;;;;52.92;46.92;;;;;;;15.10;100.00;100049.16;5415819;26;20445;-80
2024/04/25 10:09:51;;;;;;;54.13;48.28;;;;;;;14.83;100.00;100059.81;5424568;26;20014;-78
2024/04/25 10:12:23;;;;;;;;;;;;;;;14.89;100.00;100069.50;5452054;26;20017;-79
2024/04/25 10:14:59;;;;;;;51.15;45.65;;;;;;;14.73;100.00;100065.84;5444807;26;19925;-79
2024/04/25 10:17:30;;;;;;;50.67;44.90;;;;;;;14.79;100.00;100066.69;5415446;26;20004;-77
2024/04/25 10:20:00;;;;;;;52.95;44.90;;;;;;;14.92;100.00;100061.00;5415236;26;20003;-77
2024/04/25 10:22:30;;;;;;;49.55;44.13;;;;;;;15.08;100.00;100062.75;5415285;26;20830;-80
2024/04/25 10:25:03;;;;;;;49.17;43.78;;;;;;;15.22;100.00;100059.69;5427712;26;20091;-80
2024/04/25 10:27:34;;;;;;;50.78;42.03;;;;;;;15.07;100.00;100050.47;5415073;26;20003;-80
2024/04/25 10:30:06;;;;;;;51.33;44.70;;;;;;;15.12;100.00;100050.50;5407683;26;20000;-80
2024/04/25 10:32:36;;;;;;;53.38;44.80;;;;;;;15.39;100.00;100052.38;5435079;26;20075;-80
2024/04/25 10:35:05;;;;;;;55.30;49.45;;;;;;;16.00;100.00;100052.06;5451178;26;20074;-77
2024/04/25 10:37:39;;;;;;;53.35;47.75;;;;;;;15.88;100.00;100048.78;5450692;26;20042;-78
2024/04/25 10:40:15;;;;;;;49.50;44.22;;;;;;;15.80;100.00;100044.72;5450692;26;20013;-77
2024/04/25 10:42:44;;;;;;;52.45;46.70;;;;;;;15.57;100.00;100041.28;5419943;26;20017;-77
2024/04/25 10:45:13;;;;;;;50.20;45.00;;;;;;;16.45;100.00;100048.84;5415150;26;20913;-77
2024/04/25 10:47:42;;;;;;;51.97;44.47;;;;;;;15.89;100.00;100050.41;5441439;26;19995;-78
2024/04/25 10:50:11;;;;;;;59.28;49.55;;;;;;;16.05;100.00;100049.44;5451386;26;19999;-77
2024/04/25 10:52:40;;;;;;;52.15;43.67;;;;;;;16.07;100.00;100044.63;5426714;26;20000;-77
2024/04/25 10:55:12;;;;;;;50.83;45.45;;;;;;;15.93;100.00;100052.28;5415357;26;20822;-77
2024/04/25 10:57:41;;;;;;;50.83;45.43;;;;;;;15.71;100.00;100055.09;5435519;26;20034;-77
2024/04/25 11:00:10;;;;;;;49.58;44.17;;;;;;;16.08;100.00;100050.78;5450216;26;20283;-80
2024/04/25 11:02:39;;;;;;;48.40;43.20;;;;;;;15.42;100.00;100048.38;5433036;26;20475;-77
2024/04/25 11:05:08;;;;;;;48.30;43.25;;;;;;;15.90;100.00;100060.84;5414777;26;19995;-77
2024/04/25 11:07:40;;;;;;;49.00;43.80;;;;;;;15.58;100.00;100058.97;5431757;26;20468;-77
2024/04/25 11:10:15;;;;;;;47.75;42.72;;;;;;;15.83;100.00;100057.59;5450525;26;20014;-80
2024/04/25 11:12:44;;;;;;;47.95;42.80;;;;;;;15.51;100.00;100047.66;5434258;26;20003;-78
2024/04/25 11:15:18;;;;;;;47.90;41.85;;;;;;;15.55;100.00;100061.31;5414860;26;19996;-80
2024/04/25 11:17:47;;;;;;;47.50;42.10;;;;;;;15.44;100.00;100046.25;5428230;26;20078;-78
2024/04/25 11:20:18;;;;;;;47.88;42.67;;;;;;;15.34;100.00;100055.00;5451864;26;20003;-77
2024/04/25 11:22:47;;;;;;;48.67;43.33;;;;;;;15.12;100.00;100061.19;5441205;26;20000;-80